sensor_id;sensor_type;location;lat;lon;timestamp;P1;durP1;ratioP1;P2;durP2;ratioP2
32096;SDS011;18610;49.916;8.284;2023-03-01T00:02:13;28.25;;;13.48;;
32096;SDS011;18610;49.916;8.284;2023-03-01T00:04:41;24.60;;;13.15;;
32096;SDS011;18610;49.916;8.284;2023-03-01T00:07:08;29.40;;;13.32;;
32096;SDS011;18610;49.916;8.284;2023-03-01T00:09:35;23.63;;;12.88;;
32096;SDS011;18610;49.916;8.284;2023-03-01T00:12:02;23.90;;;13.23;;
32096;SDS011;18610;49.916;8.284;2023-03-01T00:14:29;25.33;;;12.68;;
32096;SDS011;18610;49.916;8.284;2023-03-01T00:16:56;24.80;;;13.13;;
32096;SDS011;18610;49.916;8.284;2023-03-01T00:19:23;26.52;;;12.75;;
32096;SDS011;18610;49.916;8.284;2023-03-01T00:21:51;25.30;;;13.00;;
32096;SDS011;18610;49.916;8.284;2023-03-01T00:24:18;21.58;;;12.40;;
32096;SDS011;18610;49.916;8.284;2023-03-01T00:26:44;24.85;;;13.20;;
32096;SDS011;18610;49.916;8.284;2023-03-01T00:29:11;28.27;;;12.50;;
32096;SDS011;18610;49.916;8.284;2023-03-01T00:31:38;24.98;;;12.63;;
32096;SDS011;18610;49.916;8.284;2023-03-01T00:34:05;22.45;;;13.13;;
32096;SDS011;18610;49.916;8.284;2023-03-01T00:36:32;23.08;;;12.60;;
32096;SDS011;18610;49.916;8.284;2023-03-01T00:39:03;28.42;;;13.75;;
32096;SDS011;18610;49.916;8.284;2023-03-01T00:41:31;26.10;;;12.93;;
32096;SDS011;18610;49.916;8.284;2023-03-01T00:43:59;25.17;;;12.75;;
32096;SDS011;18610;49.916;8.284;2023-03-01T00:46:26;21.98;;;14.40;;
32096;SDS011;18610;49.916;8.284;2023-03-01T00:48:55;26.42;;;12.75;;
32096;SDS011;18610;49.916;8.284;2023-03-01T00:51:22;26.58;;;13.27;;
32096;SDS011;18610;49.916;8.284;2023-03-01T00:53:50;27.95;;;14.02;;
32096;SDS011;18610;49.916;8.284;2023-03-01T00:56:19;29.63;;;14.32;;
32096;SDS011;18610;49.916;8.284;2023-03-01T00:58:46;28.10;;;13.95;;
32096;SDS011;18610;49.916;8.284;2023-03-01T01:01:14;23.17;;;13.00;;
32096;SDS011;18610;49.916;8.284;2023-03-01T01:03:43;27.15;;;13.93;;
32096;SDS011;18610;49.916;8.284;2023-03-01T01:06:13;24.10;;;12.43;;
32096;SDS011;18610;49.916;8.284;2023-03-01T01:08:41;26.80;;;13.60;;
32096;SDS011;18610;49.916;8.284;2023-03-01T01:11:08;29.08;;;13.45;;
32096;SDS011;18610;49.916;8.284;2023-03-01T01:13:36;23.52;;;13.52;;
32096;SDS011;18610;49.916;8.284;2023-03-01T01:16:04;26.75;;;14.00;;
32096;SDS011;18610;49.916;8.284;2023-03-01T01:18:31;24.75;;;12.43;;
32096;SDS011;18610;49.916;8.284;2023-03-01T01:21:02;25.85;;;12.90;;
32096;SDS011;18610;49.916;8.284;2023-03-01T01:23:30;30.63;;;13.63;;
32096;SDS011;18610;49.916;8.284;2023-03-01T01:25:57;30.60;;;14.02;;
32096;SDS011;18610;49.916;8.284;2023-03-01T01:28:28;21.33;;;13.07;;
32096;SDS011;18610;49.916;8.284;2023-03-01T01:30:56;27.45;;;14.18;;
32096;SDS011;18610;49.916;8.284;2023-03-01T01:33:23;28.17;;;14.10;;
32096;SDS011;18610;49.916;8.284;2023-03-01T01:35:49;24.27;;;14.57;;
32096;SDS011;18610;49.916;8.284;2023-03-01T01:38:17;25.15;;;13.57;;
32096;SDS011;18610;49.916;8.284;2023-03-01T01:40:43;26.55;;;14.60;;
32096;SDS011;18610;49.916;8.284;2023-03-01T01:43:13;23.88;;;13.40;;
32096;SDS011;18610;49.916;8.284;2023-03-01T01:45:45;28.67;;;14.48;;
32096;SDS011;18610;49.916;8.284;2023-03-01T01:48:14;28.63;;;14.30;;
32096;SDS011;18610;49.916;8.284;2023-03-01T01:50:45;26.83;;;15.20;;
32096;SDS011;18610;49.916;8.284;2023-03-01T01:55:46;27.45;;;13.30;;
32096;SDS011;18610;49.916;8.284;2023-03-01T01:58:17;27.67;;;14.38;;
32096;SDS011;18610;49.916;8.284;2023-03-01T02:00:46;26.23;;;13.98;;
32096;SDS011;18610;49.916;8.284;2023-03-01T02:03:17;23.40;;;13.30;;
32096;SDS011;18610;49.916;8.284;2023-03-01T02:05:47;32.28;;;14.77;;
32096;SDS011;18610;49.916;8.284;2023-03-01T02:08:18;25.23;;;13.88;;
32096;SDS011;18610;49.916;8.284;2023-03-01T02:10:46;31.45;;;15.13;;
32096;SDS011;18610;49.916;8.284;2023-03-01T02:13:15;21.90;;;13.02;;
32096;SDS011;18610;49.916;8.284;2023-03-01T02:15:42;23.60;;;13.82;;
32096;SDS011;18610;49.916;8.284;2023-03-01T02:18:10;24.42;;;14.00;;
32096;SDS011;18610;49.916;8.284;2023-03-01T02:20:43;30.27;;;15.13;;
32096;SDS011;18610;49.916;8.284;2023-03-01T02:23:17;33.78;;;15.13;;
32096;SDS011;18610;49.916;8.284;2023-03-01T02:25:46;30.88;;;14.63;;
32096;SDS011;18610;49.916;8.284;2023-03-01T02:28:24;25.48;;;14.60;;
32096;SDS011;18610;49.916;8.284;2023-03-01T02:30:52;28.60;;;15.10;;
32096;SDS011;18610;49.916;8.284;2023-03-01T02:33:37;27.10;;;14.65;;
32096;SDS011;18610;49.916;8.284;2023-03-01T02:36:06;29.20;;;14.55;;
32096;SDS011;18610;49.916;8.284;2023-03-01T02:38:36;28.80;;;15.45;;
32096;SDS011;18610;49.916;8.284;2023-03-01T02:41:03;26.17;;;14.52;;
32096;SDS011;18610;49.916;8.284;2023-03-01T02:43:33;26.70;;;15.00;;
32096;SDS011;18610;49.916;8.284;2023-03-01T02:46:02;29.08;;;14.43;;
32096;SDS011;18610;49.916;8.284;2023-03-01T02:48:40;25.95;;;14.75;;
32096;SDS011;18610;49.916;8.284;2023-03-01T02:51:11;27.75;;;13.57;;
32096;SDS011;18610;49.916;8.284;2023-03-01T02:53:48;26.45;;;14.20;;
32096;SDS011;18610;49.916;8.284;2023-03-01T02:56:25;25.73;;;13.13;;
32096;SDS011;18610;49.916;8.284;2023-03-01T02:58:53;26.65;;;13.93;;
32096;SDS011;18610;49.916;8.284;2023-03-01T03:01:26;34.78;;;15.63;;
32096;SDS011;18610;49.916;8.284;2023-03-01T03:04:02;29.75;;;15.20;;
32096;SDS011;18610;49.916;8.284;2023-03-01T03:06:33;25.30;;;14.02;;
32096;SDS011;18610;49.916;8.284;2023-03-01T03:08:59;28.40;;;15.02;;
32096;SDS011;18610;49.916;8.284;2023-03-01T03:11:26;27.02;;;15.43;;
32096;SDS011;18610;49.916;8.284;2023-03-01T03:13:54;26.35;;;14.25;;
32096;SDS011;18610;49.916;8.284;2023-03-01T03:16:22;33.35;;;16.02;;
32096;SDS011;18610;49.916;8.284;2023-03-01T03:18:49;24.17;;;13.98;;
32096;SDS011;18610;49.916;8.284;2023-03-01T03:21:16;35.00;;;16.42;;
32096;SDS011;18610;49.916;8.284;2023-03-01T03:23:43;25.42;;;14.80;;
32096;SDS011;18610;49.916;8.284;2023-03-01T03:26:10;30.17;;;14.68;;
32096;SDS011;18610;49.916;8.284;2023-03-01T03:28:40;27.77;;;15.68;;
32096;SDS011;18610;49.916;8.284;2023-03-01T03:31:08;29.08;;;15.98;;
32096;SDS011;18610;49.916;8.284;2023-03-01T03:33:34;28.52;;;15.60;;
32096;SDS011;18610;49.916;8.284;2023-03-01T03:36:02;27.60;;;16.05;;
32096;SDS011;18610;49.916;8.284;2023-03-01T03:38:29;29.27;;;15.30;;
32096;SDS011;18610;49.916;8.284;2023-03-01T03:41:01;32.58;;;15.60;;
32096;SDS011;18610;49.916;8.284;2023-03-01T03:43:29;29.77;;;15.90;;
32096;SDS011;18610;49.916;8.284;2023-03-01T03:45:57;26.13;;;15.52;;
32096;SDS011;18610;49.916;8.284;2023-03-01T03:48:25;24.95;;;14.15;;
32096;SDS011;18610;49.916;8.284;2023-03-01T03:50:53;29.75;;;16.92;;
32096;SDS011;18610;49.916;8.284;2023-03-01T03:53:21;25.70;;;15.35;;
32096;SDS011;18610;49.916;8.284;2023-03-01T03:55:49;31.58;;;15.40;;
32096;SDS011;18610;49.916;8.284;2023-03-01T03:58:16;29.98;;;16.13;;
32096;SDS011;18610;49.916;8.284;2023-03-01T04:00:46;27.05;;;15.75;;
32096;SDS011;18610;49.916;8.284;2023-03-01T04:03:14;32.70;;;16.52;;
32096;SDS011;18610;49.916;8.284;2023-03-01T04:05:45;25.67;;;15.18;;
32096;SDS011;18610;49.916;8.284;2023-03-01T04:08:12;31.42;;;15.52;;
32096;SDS011;18610;49.916;8.284;2023-03-01T04:10:40;33.97;;;17.13;;
32096;SDS011;18610;49.916;8.284;2023-03-01T04:13:09;30.02;;;17.00;;
32096;SDS011;18610;49.916;8.284;2023-03-01T04:15:37;29.10;;;15.75;;
32096;SDS011;18610;49.916;8.284;2023-03-01T04:18:04;32.60;;;15.70;;
32096;SDS011;18610;49.916;8.284;2023-03-01T04:20:33;29.23;;;14.32;;
32096;SDS011;18610;49.916;8.284;2023-03-01T04:23:03;31.75;;;16.80;;
32096;SDS011;18610;49.916;8.284;2023-03-01T04:25:35;28.98;;;15.35;;
32096;SDS011;18610;49.916;8.284;2023-03-01T04:28:03;33.33;;;16.63;;
32096;SDS011;18610;49.916;8.284;2023-03-01T04:30:30;31.42;;;15.85;;
32096;SDS011;18610;49.916;8.284;2023-03-01T04:33:00;30.58;;;15.23;;
32096;SDS011;18610;49.916;8.284;2023-03-01T04:35:28;28.98;;;15.95;;
32096;SDS011;18610;49.916;8.284;2023-03-01T04:37:54;30.13;;;16.38;;
32096;SDS011;18610;49.916;8.284;2023-03-01T04:40:22;39.03;;;15.45;;
32096;SDS011;18610;49.916;8.284;2023-03-01T04:42:50;31.73;;;15.93;;
32096;SDS011;18610;49.916;8.284;2023-03-01T04:45:16;27.67;;;16.13;;
32096;SDS011;18610;49.916;8.284;2023-03-01T04:47:44;33.00;;;16.70;;
32096;SDS011;18610;49.916;8.284;2023-03-01T04:50:12;30.75;;;16.33;;
32096;SDS011;18610;49.916;8.284;2023-03-01T04:52:40;27.73;;;15.73;;
32096;SDS011;18610;49.916;8.284;2023-03-01T04:55:08;29.40;;;14.75;;
32096;SDS011;18610;49.916;8.284;2023-03-01T04:57:36;30.63;;;16.55;;
32096;SDS011;18610;49.916;8.284;2023-03-01T05:00:03;27.38;;;16.02;;
32096;SDS011;18610;49.916;8.284;2023-03-01T05:02:44;35.40;;;17.13;;
32096;SDS011;18610;49.916;8.284;2023-03-01T05:05:13;34.50;;;17.38;;
32096;SDS011;18610;49.916;8.284;2023-03-01T05:07:40;34.55;;;17.38;;
32096;SDS011;18610;49.916;8.284;2023-03-01T05:10:07;28.40;;;16.45;;
32096;SDS011;18610;49.916;8.284;2023-03-01T05:12:34;36.88;;;19.08;;
32096;SDS011;18610;49.916;8.284;2023-03-01T05:15:04;32.67;;;15.98;;
32096;SDS011;18610;49.916;8.284;2023-03-01T05:17:32;37.30;;;17.38;;
32096;SDS011;18610;49.916;8.284;2023-03-01T05:19:58;30.17;;;15.77;;
32096;SDS011;18610;49.916;8.284;2023-03-01T05:22:26;38.40;;;18.95;;
32096;SDS011;18610;49.916;8.284;2023-03-01T05:24:52;35.08;;;18.25;;
32096;SDS011;18610;49.916;8.284;2023-03-01T05:27:20;39.13;;;18.73;;
32096;SDS011;18610;49.916;8.284;2023-03-01T05:29:47;35.13;;;18.05;;
32096;SDS011;18610;49.916;8.284;2023-03-01T05:32:15;31.20;;;17.73;;
32096;SDS011;18610;49.916;8.284;2023-03-01T05:34:42;35.40;;;18.80;;
32096;SDS011;18610;49.916;8.284;2023-03-01T05:37:11;35.00;;;18.33;;
32096;SDS011;18610;49.916;8.284;2023-03-01T05:39:38;36.95;;;18.13;;
32096;SDS011;18610;49.916;8.284;2023-03-01T05:42:08;33.38;;;18.92;;
32096;SDS011;18610;49.916;8.284;2023-03-01T05:44:36;34.83;;;18.05;;
32096;SDS011;18610;49.916;8.284;2023-03-01T05:47:03;33.70;;;18.02;;
32096;SDS011;18610;49.916;8.284;2023-03-01T05:49:32;35.50;;;18.05;;
32096;SDS011;18610;49.916;8.284;2023-03-01T05:51:59;33.00;;;17.15;;
32096;SDS011;18610;49.916;8.284;2023-03-01T05:54:26;35.35;;;16.80;;
32096;SDS011;18610;49.916;8.284;2023-03-01T05:56:53;29.38;;;17.50;;
32096;SDS011;18610;49.916;8.284;2023-03-01T05:59:19;37.33;;;18.23;;
32096;SDS011;18610;49.916;8.284;2023-03-01T06:01:46;37.47;;;19.13;;
32096;SDS011;18610;49.916;8.284;2023-03-01T06:04:13;35.22;;;18.60;;
32096;SDS011;18610;49.916;8.284;2023-03-01T06:06:41;32.05;;;18.02;;
32096;SDS011;18610;49.916;8.284;2023-03-01T06:09:07;35.33;;;19.38;;
32096;SDS011;18610;49.916;8.284;2023-03-01T06:11:34;31.95;;;17.52;;
32096;SDS011;18610;49.916;8.284;2023-03-01T06:14:02;34.45;;;19.23;;
32096;SDS011;18610;49.916;8.284;2023-03-01T06:16:29;35.97;;;19.08;;
32096;SDS011;18610;49.916;8.284;2023-03-01T06:18:55;42.92;;;18.00;;
32096;SDS011;18610;49.916;8.284;2023-03-01T06:21:22;36.05;;;18.92;;
32096;SDS011;18610;49.916;8.284;2023-03-01T06:23:50;35.75;;;19.17;;
32096;SDS011;18610;49.916;8.284;2023-03-01T06:26:17;30.45;;;17.42;;
32096;SDS011;18610;49.916;8.284;2023-03-01T06:28:44;38.08;;;20.23;;
32096;SDS011;18610;49.916;8.284;2023-03-01T06:31:11;39.33;;;20.00;;
32096;SDS011;18610;49.916;8.284;2023-03-01T06:33:38;36.22;;;20.33;;
32096;SDS011;18610;49.916;8.284;2023-03-01T06:36:05;38.47;;;19.45;;
32096;SDS011;18610;49.916;8.284;2023-03-01T06:38:32;36.38;;;19.50;;
32096;SDS011;18610;49.916;8.284;2023-03-01T06:41:00;43.92;;;20.17;;
32096;SDS011;18610;49.916;8.284;2023-03-01T06:43:27;42.25;;;20.40;;
32096;SDS011;18610;49.916;8.284;2023-03-01T06:45:53;40.10;;;22.80;;
32096;SDS011;18610;49.916;8.284;2023-03-01T06:48:20;37.85;;;18.85;;
32096;SDS011;18610;49.916;8.284;2023-03-01T06:50:47;36.17;;;20.08;;
32096;SDS011;18610;49.916;8.284;2023-03-01T06:53:13;40.63;;;19.73;;
32096;SDS011;18610;49.916;8.284;2023-03-01T06:55:40;36.13;;;18.73;;
32096;SDS011;18610;49.916;8.284;2023-03-01T06:58:09;40.72;;;20.92;;
32096;SDS011;18610;49.916;8.284;2023-03-01T07:00:36;35.75;;;19.83;;
32096;SDS011;18610;49.916;8.284;2023-03-01T07:03:05;41.83;;;18.95;;
32096;SDS011;18610;49.916;8.284;2023-03-01T07:05:32;42.92;;;19.67;;
32096;SDS011;18610;49.916;8.284;2023-03-01T07:07:59;41.70;;;19.65;;
32096;SDS011;18610;49.916;8.284;2023-03-01T07:10:26;41.38;;;17.73;;
32096;SDS011;18610;49.916;8.284;2023-03-01T07:12:54;40.25;;;20.92;;
32096;SDS011;18610;49.916;8.284;2023-03-01T07:15:23;34.50;;;19.50;;
32096;SDS011;18610;49.916;8.284;2023-03-01T07:17:49;41.10;;;18.35;;
32096;SDS011;18610;49.916;8.284;2023-03-01T07:20:17;31.85;;;18.30;;
32096;SDS011;18610;49.916;8.284;2023-03-01T07:22:47;36.25;;;18.20;;
32096;SDS011;18610;49.916;8.284;2023-03-01T07:25:14;37.10;;;18.42;;
32096;SDS011;18610;49.916;8.284;2023-03-01T07:27:40;32.53;;;16.80;;
32096;SDS011;18610;49.916;8.284;2023-03-01T07:30:08;37.63;;;19.65;;
32096;SDS011;18610;49.916;8.284;2023-03-01T07:32:36;36.42;;;18.58;;
32096;SDS011;18610;49.916;8.284;2023-03-01T07:35:03;40.90;;;19.20;;
32096;SDS011;18610;49.916;8.284;2023-03-01T07:37:31;37.00;;;18.73;;
32096;SDS011;18610;49.916;8.284;2023-03-01T07:39:57;48.95;;;20.80;;
32096;SDS011;18610;49.916;8.284;2023-03-01T07:42:24;35.33;;;19.20;;
32096;SDS011;18610;49.916;8.284;2023-03-01T07:44:50;33.60;;;18.63;;
32096;SDS011;18610;49.916;8.284;2023-03-01T07:47:17;32.38;;;17.42;;
32096;SDS011;18610;49.916;8.284;2023-03-01T07:49:45;31.15;;;16.25;;
32096;SDS011;18610;49.916;8.284;2023-03-01T07:52:12;29.55;;;16.30;;
32096;SDS011;18610;49.916;8.284;2023-03-01T07:54:38;29.73;;;17.83;;
32096;SDS011;18610;49.916;8.284;2023-03-01T07:57:08;37.65;;;18.45;;
32096;SDS011;18610;49.916;8.284;2023-03-01T07:59:34;38.55;;;18.95;;
32096;SDS011;18610;49.916;8.284;2023-03-01T08:02:01;31.63;;;17.80;;
32096;SDS011;18610;49.916;8.284;2023-03-01T08:04:28;41.90;;;21.17;;
32096;SDS011;18610;49.916;8.284;2023-03-01T08:06:56;41.28;;;18.77;;
32096;SDS011;18610;49.916;8.284;2023-03-01T08:09:23;36.15;;;17.33;;
32096;SDS011;18610;49.916;8.284;2023-03-01T08:11:49;37.75;;;18.67;;
32096;SDS011;18610;49.916;8.284;2023-03-01T08:14:16;33.10;;;17.70;;
32096;SDS011;18610;49.916;8.284;2023-03-01T08:16:43;33.65;;;18.38;;
32096;SDS011;18610;49.916;8.284;2023-03-01T08:19:10;33.97;;;17.63;;
32096;SDS011;18610;49.916;8.284;2023-03-01T08:21:37;33.88;;;16.60;;
32096;SDS011;18610;49.916;8.284;2023-03-01T08:24:06;36.65;;;18.25;;
32096;SDS011;18610;49.916;8.284;2023-03-01T08:26:35;35.88;;;17.75;;
32096;SDS011;18610;49.916;8.284;2023-03-01T08:29:02;32.72;;;18.85;;
32096;SDS011;18610;49.916;8.284;2023-03-01T08:31:30;41.53;;;17.85;;
32096;SDS011;18610;49.916;8.284;2023-03-01T08:34:00;36.92;;;16.58;;
32096;SDS011;18610;49.916;8.284;2023-03-01T08:36:28;27.33;;;15.82;;
32096;SDS011;18610;49.916;8.284;2023-03-01T08:38:56;30.95;;;17.02;;
32096;SDS011;18610;49.916;8.284;2023-03-01T08:41:24;49.50;;;18.52;;
32096;SDS011;18610;49.916;8.284;2023-03-01T08:43:51;37.47;;;15.95;;
32096;SDS011;18610;49.916;8.284;2023-03-01T08:46:23;30.25;;;14.48;;
32096;SDS011;18610;49.916;8.284;2023-03-01T08:48:50;36.03;;;17.08;;
32096;SDS011;18610;49.916;8.284;2023-03-01T08:51:17;35.72;;;16.40;;
32096;SDS011;18610;49.916;8.284;2023-03-01T08:53:45;30.88;;;16.13;;
32096;SDS011;18610;49.916;8.284;2023-03-01T08:56:13;33.50;;;15.25;;
32096;SDS011;18610;49.916;8.284;2023-03-01T08:58:43;24.90;;;14.05;;
32096;SDS011;18610;49.916;8.284;2023-03-01T09:01:11;32.53;;;14.95;;
32096;SDS011;18610;49.916;8.284;2023-03-01T09:03:39;31.45;;;15.90;;
32096;SDS011;18610;49.916;8.284;2023-03-01T09:06:07;32.85;;;14.82;;
32096;SDS011;18610;49.916;8.284;2023-03-01T09:08:34;29.65;;;15.02;;
32096;SDS011;18610;49.916;8.284;2023-03-01T09:11:01;31.83;;;16.58;;
32096;SDS011;18610;49.916;8.284;2023-03-01T09:13:28;26.20;;;14.65;;
32096;SDS011;18610;49.916;8.284;2023-03-01T09:15:58;24.98;;;14.55;;
32096;SDS011;18610;49.916;8.284;2023-03-01T09:18:26;34.78;;;15.35;;
32096;SDS011;18610;49.916;8.284;2023-03-01T09:20:53;30.23;;;14.20;;
32096;SDS011;18610;49.916;8.284;2023-03-01T09:23:26;37.33;;;15.07;;
32096;SDS011;18610;49.916;8.284;2023-03-01T09:25:53;26.52;;;14.70;;
32096;SDS011;18610;49.916;8.284;2023-03-01T09:28:19;29.35;;;15.45;;
32096;SDS011;18610;49.916;8.284;2023-03-01T09:30:48;32.55;;;15.80;;
32096;SDS011;18610;49.916;8.284;2023-03-01T09:33:16;25.13;;;14.75;;
32096;SDS011;18610;49.916;8.284;2023-03-01T09:35:42;26.90;;;14.73;;
32096;SDS011;18610;49.916;8.284;2023-03-01T09:38:12;26.80;;;14.45;;
32096;SDS011;18610;49.916;8.284;2023-03-01T09:40:41;26.95;;;14.70;;
32096;SDS011;18610;49.916;8.284;2023-03-01T09:43:13;27.77;;;14.35;;
32096;SDS011;18610;49.916;8.284;2023-03-01T09:45:45;26.23;;;14.43;;
32096;SDS011;18610;49.916;8.284;2023-03-01T09:48:18;31.13;;;15.13;;
32096;SDS011;18610;49.916;8.284;2023-03-01T09:50:48;24.88;;;14.98;;
32096;SDS011;18610;49.916;8.284;2023-03-01T09:53:17;33.42;;;16.48;;
32096;SDS011;18610;49.916;8.284;2023-03-01T09:55:48;25.25;;;15.05;;
32096;SDS011;18610;49.916;8.284;2023-03-01T09:58:29;28.33;;;15.53;;
32096;SDS011;18610;49.916;8.284;2023-03-01T10:01:06;28.00;;;15.98;;
32096;SDS011;18610;49.916;8.284;2023-03-01T10:03:50;31.00;;;15.80;;
32096;SDS011;18610;49.916;8.284;2023-03-01T10:06:26;28.33;;;15.70;;
32096;SDS011;18610;49.916;8.284;2023-03-01T10:08:53;25.13;;;15.77;;
32096;SDS011;18610;49.916;8.284;2023-03-01T10:11:22;26.38;;;15.07;;
32096;SDS011;18610;49.916;8.284;2023-03-01T10:13:54;25.88;;;13.98;;
32096;SDS011;18610;49.916;8.284;2023-03-01T10:16:26;26.85;;;15.52;;
32096;SDS011;18610;49.916;8.284;2023-03-01T10:19:02;24.58;;;14.98;;
32096;SDS011;18610;49.916;8.284;2023-03-01T10:21:31;25.05;;;14.73;;
32096;SDS011;18610;49.916;8.284;2023-03-01T10:24:08;26.88;;;16.48;;
32096;SDS011;18610;49.916;8.284;2023-03-01T10:26:40;32.53;;;16.48;;
32096;SDS011;18610;49.916;8.284;2023-03-01T10:29:13;32.55;;;15.85;;
32096;SDS011;18610;49.916;8.284;2023-03-01T10:31:41;25.77;;;15.57;;
32096;SDS011;18610;49.916;8.284;2023-03-01T10:34:12;27.83;;;15.57;;
32096;SDS011;18610;49.916;8.284;2023-03-01T10:36:41;28.38;;;15.60;;
32096;SDS011;18610;49.916;8.284;2023-03-01T10:39:12;26.05;;;14.90;;
32096;SDS011;18610;49.916;8.284;2023-03-01T10:41:52;23.40;;;14.90;;
32096;SDS011;18610;49.916;8.284;2023-03-01T10:44:35;26.58;;;16.08;;
32096;SDS011;18610;49.916;8.284;2023-03-01T10:47:12;25.13;;;14.90;;
32096;SDS011;18610;49.916;8.284;2023-03-01T10:49:51;26.80;;;16.25;;
32096;SDS011;18610;49.916;8.284;2023-03-01T10:52:24;30.88;;;15.00;;
32096;SDS011;18610;49.916;8.284;2023-03-01T10:54:55;36.58;;;16.27;;
32096;SDS011;18610;49.916;8.284;2023-03-01T10:57:31;31.45;;;15.88;;
32096;SDS011;18610;49.916;8.284;2023-03-01T11:00:14;23.48;;;15.27;;
32096;SDS011;18610;49.916;8.284;2023-03-01T11:02:45;27.67;;;15.27;;
32096;SDS011;18610;49.916;8.284;2023-03-01T11:05:18;31.85;;;17.23;;
32096;SDS011;18610;49.916;8.284;2023-03-01T11:07:49;27.05;;;14.70;;
32096;SDS011;18610;49.916;8.284;2023-03-01T11:10:18;24.13;;;15.35;;
32096;SDS011;18610;49.916;8.284;2023-03-01T11:12:46;28.02;;;15.40;;
32096;SDS011;18610;49.916;8.284;2023-03-01T11:15:20;27.42;;;15.55;;
32096;SDS011;18610;49.916;8.284;2023-03-01T11:17:49;24.88;;;14.60;;
32096;SDS011;18610;49.916;8.284;2023-03-01T11:20:20;32.58;;;14.95;;
32096;SDS011;18610;49.916;8.284;2023-03-01T11:22:52;25.67;;;15.80;;
32096;SDS011;18610;49.916;8.284;2023-03-01T11:25:21;27.50;;;15.60;;
32096;SDS011;18610;49.916;8.284;2023-03-01T11:27:50;25.27;;;16.23;;
32096;SDS011;18610;49.916;8.284;2023-03-01T11:30:20;23.63;;;15.60;;
32096;SDS011;18610;49.916;8.284;2023-03-01T11:32:53;27.65;;;14.13;;
32096;SDS011;18610;49.916;8.284;2023-03-01T11:35:30;24.27;;;13.55;;
32096;SDS011;18610;49.916;8.284;2023-03-01T11:38:03;24.20;;;14.85;;
32096;SDS011;18610;49.916;8.284;2023-03-01T11:40:41;24.88;;;13.88;;
32096;SDS011;18610;49.916;8.284;2023-03-01T11:43:15;28.55;;;16.50;;
32096;SDS011;18610;49.916;8.284;2023-03-01T11:45:52;24.08;;;14.73;;
32096;SDS011;18610;49.916;8.284;2023-03-01T11:48:37;22.85;;;14.52;;
32096;SDS011;18610;49.916;8.284;2023-03-01T11:51:15;25.98;;;15.82;;
32096;SDS011;18610;49.916;8.284;2023-03-01T11:53:51;23.98;;;14.18;;
32096;SDS011;18610;49.916;8.284;2023-03-01T11:56:27;27.05;;;14.63;;
32096;SDS011;18610;49.916;8.284;2023-03-01T12:02:10;25.30;;;13.55;;
32096;SDS011;18610;49.916;8.284;2023-03-01T12:05:07;31.55;;;14.32;;
32096;SDS011;18610;49.916;8.284;2023-03-01T12:07:49;25.08;;;14.63;;
32096;SDS011;18610;49.916;8.284;2023-03-01T12:10:22;20.08;;;12.50;;
32096;SDS011;18610;49.916;8.284;2023-03-01T12:15:51;25.20;;;14.02;;
32096;SDS011;18610;49.916;8.284;2023-03-01T12:18:35;21.48;;;13.20;;
32096;SDS011;18610;49.916;8.284;2023-03-01T12:21:23;21.05;;;14.15;;
32096;SDS011;18610;49.916;8.284;2023-03-01T12:24:06;21.88;;;13.10;;
32096;SDS011;18610;49.916;8.284;2023-03-01T12:26:41;19.50;;;13.35;;
32096;SDS011;18610;49.916;8.284;2023-03-01T12:29:23;19.75;;;12.70;;
32096;SDS011;18610;49.916;8.284;2023-03-01T12:31:59;26.10;;;13.10;;
32096;SDS011;18610;49.916;8.284;2023-03-01T12:34:47;20.08;;;13.63;;
32096;SDS011;18610;49.916;8.284;2023-03-01T12:37:40;16.10;;;11.23;;
32096;SDS011;18610;49.916;8.284;2023-03-01T12:40:18;23.52;;;12.52;;
32096;SDS011;18610;49.916;8.284;2023-03-01T12:45:32;19.63;;;12.60;;
32096;SDS011;18610;49.916;8.284;2023-03-01T12:48:13;19.55;;;11.38;;
32096;SDS011;18610;49.916;8.284;2023-03-01T12:50:51;20.42;;;12.65;;
32096;SDS011;18610;49.916;8.284;2023-03-01T12:53:21;23.23;;;12.15;;
32096;SDS011;18610;49.916;8.284;2023-03-01T12:55:51;19.48;;;11.95;;
32096;SDS011;18610;49.916;8.284;2023-03-01T12:58:23;18.38;;;11.23;;
32096;SDS011;18610;49.916;8.284;2023-03-01T13:00:57;16.65;;;10.55;;
32096;SDS011;18610;49.916;8.284;2023-03-01T13:03:38;21.73;;;12.95;;
32096;SDS011;18610;49.916;8.284;2023-03-01T13:06:18;16.13;;;10.70;;
32096;SDS011;18610;49.916;8.284;2023-03-01T13:08:54;15.90;;;10.75;;
32096;SDS011;18610;49.916;8.284;2023-03-01T13:11:28;15.85;;;10.85;;
32096;SDS011;18610;49.916;8.284;2023-03-01T13:14:08;17.85;;;11.32;;
32096;SDS011;18610;49.916;8.284;2023-03-01T13:17:03;18.73;;;9.85;;
32096;SDS011;18610;49.916;8.284;2023-03-01T13:19:30;18.50;;;10.50;;
32096;SDS011;18610;49.916;8.284;2023-03-01T13:21:57;19.05;;;11.40;;
32096;SDS011;18610;49.916;8.284;2023-03-01T13:24:26;28.25;;;11.77;;
32096;SDS011;18610;49.916;8.284;2023-03-01T13:27:10;16.75;;;11.32;;
32096;SDS011;18610;49.916;8.284;2023-03-01T13:29:51;15.75;;;10.65;;
32096;SDS011;18610;49.916;8.284;2023-03-01T13:32:20;15.27;;;9.88;;
32096;SDS011;18610;49.916;8.284;2023-03-01T13:34:52;15.30;;;10.63;;
32096;SDS011;18610;49.916;8.284;2023-03-01T13:37:27;15.02;;;10.25;;
32096;SDS011;18610;49.916;8.284;2023-03-01T13:39:56;24.35;;;10.73;;
32096;SDS011;18610;49.916;8.284;2023-03-01T13:42:42;16.73;;;10.82;;
32096;SDS011;18610;49.916;8.284;2023-03-01T13:45:17;15.60;;;10.13;;
32096;SDS011;18610;49.916;8.284;2023-03-01T13:47:52;17.25;;;9.93;;
32096;SDS011;18610;49.916;8.284;2023-03-01T13:50:23;26.30;;;10.82;;
32096;SDS011;18610;49.916;8.284;2023-03-01T13:52:55;20.25;;;10.68;;
32096;SDS011;18610;49.916;8.284;2023-03-01T13:55:27;15.45;;;9.85;;
32096;SDS011;18610;49.916;8.284;2023-03-01T13:57:58;17.67;;;11.05;;
32096;SDS011;18610;49.916;8.284;2023-03-01T14:00:30;12.85;;;9.55;;
32096;SDS011;18610;49.916;8.284;2023-03-01T14:03:02;17.35;;;8.95;;
32096;SDS011;18610;49.916;8.284;2023-03-01T14:05:31;19.85;;;10.48;;
32096;SDS011;18610;49.916;8.284;2023-03-01T14:07:58;14.52;;;9.35;;
32096;SDS011;18610;49.916;8.284;2023-03-01T14:10:25;17.23;;;9.85;;
32096;SDS011;18610;49.916;8.284;2023-03-01T14:13:00;15.93;;;9.55;;
32096;SDS011;18610;49.916;8.284;2023-03-01T14:15:42;17.90;;;10.57;;
32096;SDS011;18610;49.916;8.284;2023-03-01T14:18:17;15.48;;;9.38;;
32096;SDS011;18610;49.916;8.284;2023-03-01T14:20:51;16.27;;;8.82;;
32096;SDS011;18610;49.916;8.284;2023-03-01T14:23:18;12.45;;;8.50;;
32096;SDS011;18610;49.916;8.284;2023-03-01T14:25:47;13.68;;;8.57;;
32096;SDS011;18610;49.916;8.284;2023-03-01T14:28:16;16.23;;;8.60;;
32096;SDS011;18610;49.916;8.284;2023-03-01T14:30:47;17.38;;;9.32;;
32096;SDS011;18610;49.916;8.284;2023-03-01T14:33:19;15.13;;;8.93;;
32096;SDS011;18610;49.916;8.284;2023-03-01T14:35:54;16.27;;;9.07;;
32096;SDS011;18610;49.916;8.284;2023-03-01T14:38:27;17.80;;;8.90;;
32096;SDS011;18610;49.916;8.284;2023-03-01T14:40:58;23.02;;;9.35;;
32096;SDS011;18610;49.916;8.284;2023-03-01T14:43:28;19.30;;;9.15;;
32096;SDS011;18610;49.916;8.284;2023-03-01T14:45:57;18.13;;;9.10;;
32096;SDS011;18610;49.916;8.284;2023-03-01T14:48:24;14.57;;;8.63;;
32096;SDS011;18610;49.916;8.284;2023-03-01T14:50:53;13.45;;;9.18;;
32096;SDS011;18610;49.916;8.284;2023-03-01T14:53:21;14.52;;;8.60;;